This is the latest recevied weather packets stored in our database for station/object DL7HMX-13. If no packets are shown the sender has not sent any weather packets the latest 10 day(s).
| Time | Temp. | Humidity | Pressure | Rain* | Wind** | Luminosity | Snow |
|---|---|---|---|---|---|---|---|
| 1778076629 | 23.33° C | 39% | 1003.3 hPa | 0 mm | - | 527 W/m² | - |
| 1778076016 | 23.33° C | 40% | 1003.5 hPa | 0 mm | - | 549 W/m² | - |
| 1778075419 | 22.78° C | 42% | 1003.7 hPa | 0 mm | - | 569 W/m² | - |
| 1778074822 | 22.78° C | 43% | 1003.7 hPa | 0 mm | - | 587 W/m² | - |
| 1778074225 | 23.89° C | 41% | 1004 hPa | 0 mm | - | 572 W/m² | - |
| 1778073628 | 22.78° C | 43% | 1004.1 hPa | 0 mm | - | 615 W/m² | - |
| 1778073031 | 23.89° C | 42% | 1004.1 hPa | 0 mm | - | 638 W/m² | - |
| 1778072419 | 23.33° C | 44% | 1004.2 hPa | 0 mm | - | 646 W/m² | - |
| 1778071820 | 22.78° C | 45% | 1004.3 hPa | 0 mm | - | 656 W/m² | - |
| 1778071224 | 22.78° C | 45% | 1004.4 hPa | 0 mm | - | 681 W/m² | - |
| 1778070626 | 23.33° C | 43% | 1004.7 hPa | 0 mm | - | 689 W/m² | - |
| 1778070029 | 22.22° C | 48% | 1004.8 hPa | 0 mm | - | 677 W/m² | - |
| 1778069417 | 22.22° C | 49% | 1005.1 hPa | 0 mm | - | 461 W/m² | - |
| 1778068820 | 23.89° C | 49% | 1005.2 hPa | 0 mm | - | 640 W/m² | - |
| 1778068222 | 22.22° C | 52% | 1005.5 hPa | 0 mm | - | 722 W/m² | - |
| 1778067625 | 21.11° C | 56% | 1005.6 hPa | 0 mm | - | 413 W/m² | - |
| 1778067028 | 20.56° C | 56% | 1005.6 hPa | 0 mm | - | 530 W/m² | - |
| 1778066432 | 21.67° C | 56% | 1005.8 hPa | 0 mm | - | 350 W/m² | - |
| 1778065817 | 20.56° C | 58% | 1006 hPa | 0 mm | - | 559 W/m² | - |
| 1778065220 | 21.11° C | 57% | 1006.1 hPa | 0 mm | - | 268 W/m² | - |
| 1778064623 | 20° C | 59% | 1006.3 hPa | 0 mm | - | 290 W/m² | - |
| 1778064016 | 21.11° C | 57% | 1006.4 hPa | 0 mm | - | 608 W/m² | - |
| 1778063419 | 20.56° C | 58% | 1006.5 hPa | 0 mm | - | 764 W/m² | - |
| 1778062821 | 20.56° C | 60% | 1006.6 hPa | 0 mm | - | 315 W/m² | - |
| 1778062224 | 20° C | 60% | 1006.8 hPa | 0 mm | - | 728 W/m² | - |
* Rain latest hour (hover to see other rain measurements)
** Current wind speed in m/s (hover to see current wind gust speed)